Time;durP1;ratioP1;P1;durP2;ratioP2;P2;SDS_P1;SDS_P2;PMS_P1;PMS_P2;Temp;Humidity;BMP_temperature;BMP_pressure;BME280_temperature;BME280_humidity;BME280_pressure;Samples;Min_cycle;Max_cycle;Signal;HPM_P1;HPM_P2
2023/01/03 00:01:11;;;;;;;3.70;1.92;;;8.00;99.90;;;;;;5060937;28;19912;-62
2023/01/03 00:03:37;;;;;;;4.43;1.90;;;8.00;99.90;;;;;;5069436;28;20457;-62
2023/01/03 00:06:02;;;;;;;8.32;2.13;;;8.00;99.90;;;;;;5069038;28;20036;-63
2023/01/03 00:08:28;;;;;;;3.72;2.03;;;8.00;99.90;;;;;;5068824;28;20401;-63
2023/01/03 00:10:54;;;;;;;3.33;1.92;;;8.00;99.90;;;;;;5065256;28;20091;-63
2023/01/03 00:13:20;;;;;;;3.72;2.10;;;8.10;99.90;;;;;;5070245;28;20488;-62
2023/01/03 00:15:45;;;;;;;4.20;1.90;;;8.10;99.90;;;;;;5066862;28;20029;-63
2023/01/03 00:18:11;;;;;;;2.53;1.45;;;8.00;99.90;;;;;;5068884;28;20032;-62
2023/01/03 00:20:36;;;;;;;2.88;1.48;;;8.00;99.90;;;;;;5067831;28;20037;-62
2023/01/03 00:23:02;;;;;;;3.33;1.85;;;8.00;99.90;;;;;;5065987;28;20020;-62
2023/01/03 00:25:28;;;;;;;3.70;1.83;;;7.90;99.90;;;;;;5066618;28;20397;-61
2023/01/03 00:27:54;;;;;;;3.85;1.90;;;8.00;99.90;;;;;;5059864;28;20052;-62
2023/01/03 00:30:20;;;;;;;4.88;2.03;;;7.90;99.90;;;;;;5064842;28;20556;-63
2023/01/03 00:32:46;;;;;;;6.28;2.30;;;7.90;99.90;;;;;;5064955;28;20036;-63
2023/01/03 00:35:11;;;;;;;3.17;1.85;;;8.00;99.90;;;;;;5068321;28;20021;-62
2023/01/03 00:37:37;;;;;;;3.10;1.83;;;8.00;99.90;;;;;;5063665;28;20107;-62
2023/01/03 00:40:03;;;;;;;3.97;2.15;;;8.00;99.90;;;;;;5068487;28;20029;-63
2023/01/03 00:43:27;;;;;;;4.47;1.90;;;8.00;99.90;;;;;;5052671;28;20071;-62
2023/01/03 00:45:15;;;;;;;5.85;1.75;;;8.00;99.90;;;;;;5059937;28;20032;-62
2023/01/03 00:47:40;;;;;;;3.83;1.88;;;8.00;99.90;;;;;;5056872;28;20099;-62
2023/01/03 00:50:06;;;;;;;3.08;1.70;;;8.00;99.90;;;;;;5065293;28;20102;-64
2023/01/03 00:52:32;;;;;;;3.97;1.98;;;8.10;99.90;;;;;;5062861;28;20536;-64
2023/01/03 00:54:57;;;;;;;2.67;1.60;;;8.10;99.90;;;;;;5054582;28;20120;-62
2023/01/03 00:57:23;;;;;;;4.43;1.90;;;8.00;99.90;;;;;;5062376;28;20058;-62
2023/01/03 00:59:48;;;;;;;3.05;1.65;;;8.00;99.90;;;;;;5063801;28;20046;-62
2023/01/03 01:02:14;;;;;;;5.30;1.90;;;8.00;99.90;;;;;;5065679;28;20040;-62
2023/01/03 01:04:40;;;;;;;4.10;1.90;;;8.00;99.90;;;;;;5060157;28;20109;-62
2023/01/03 01:07:05;;;;;;;3.65;1.77;;;8.00;99.90;;;;;;5063887;28;20537;-63
2023/01/03 01:09:35;;;;;;;4.13;1.98;;;8.00;99.90;;;;;;5061672;28;20024;-62
2023/01/03 01:12:02;;;;;;;3.30;1.55;;;7.90;99.90;;;;;;5063917;28;20033;-63
2023/01/03 01:14:29;;;;;;;3.33;1.75;;;7.90;99.90;;;;;;5066392;28;20039;-63
2023/01/03 01:16:58;;;;;;;3.22;1.58;;;8.00;99.90;;;;;;5053437;28;20118;-62
2023/01/03 01:19:30;;;;;;;4.07;1.55;;;7.90;99.90;;;;;;5064010;28;20481;-62
2023/01/03 01:21:56;;;;;;;2.88;1.70;;;7.90;99.90;;;;;;5061773;28;20698;-63
2023/01/03 01:24:22;;;;;;;3.83;1.75;;;7.90;99.90;;;;;;5061669;28;20461;-63
2023/01/03 01:26:48;;;;;;;4.28;1.70;;;7.80;99.90;;;;;;5056184;28;20057;-62
2023/01/03 01:29:15;;;;;;;2.78;1.55;;;7.80;99.90;;;;;;5065782;28;20552;-62
2023/01/03 01:31:41;;;;;;;3.00;1.58;;;7.80;99.90;;;;;;5061863;28;20082;-63
2023/01/03 01:34:07;;;;;;;4.18;1.58;;;7.80;99.90;;;;;;5066238;28;20566;-62
2023/01/03 01:36:36;;;;;;;3.88;1.88;;;7.80;99.90;;;;;;5058016;28;20024;-61
2023/01/03 01:39:16;;;;;;;4.18;1.90;;;7.80;99.90;;;;;;5063547;28;20480;-63
2023/01/03 01:44:59;;;;;;;3.40;1.58;;;7.80;99.90;;;;;;5065472;28;20028;-63
2023/01/03 01:48:00;;;;;;;2.80;1.70;;;7.80;99.90;;;;;;5065330;28;20020;-63
2023/01/03 01:50:45;;;;;;;3.47;1.98;;;7.80;99.90;;;;;;5062646;28;20078;-62
2023/01/03 01:53:33;;;;;;;3.85;1.70;;;7.70;99.90;;;;;;5063257;28;20043;-62
2023/01/03 01:56:12;;;;;;;5.30;1.83;;;7.70;99.90;;;;;;5055568;28;20401;-63
2023/01/03 01:58:41;;;;;;;3.20;1.55;;;7.70;99.90;;;;;;5056050;28;20033;-64
2023/01/03 02:01:11;;;;;;;7.63;1.77;;;7.60;99.90;;;;;;5065698;28;20959;-63
2023/01/03 02:03:37;;;;;;;;;;;7.50;99.90;;;;;;5067321;28;20020;-66
2023/01/03 02:06:07;;;;;;;3.42;1.50;;;7.50;99.90;;;;;;5064762;28;19909;-63
2023/01/03 02:08:32;;;;;;;3.88;2.00;;;7.50;99.90;;;;;;5058300;28;20106;-63
2023/01/03 02:11:01;;;;;;;3.67;1.80;;;7.50;99.90;;;;;;5063962;28;20469;-61
2023/01/03 02:13:45;;;;;;;3.78;1.63;;;7.40;99.90;;;;;;5064710;28;21565;-63
2023/01/03 02:16:19;;;;;;;3.63;1.75;;;7.40;99.90;;;;;;5061406;28;20063;-63
2023/01/03 02:18:45;;;;;;;3.10;1.67;;;7.30;99.90;;;;;;5062891;28;20469;-62
2023/01/03 02:21:48;;;;;;;2.88;1.58;;;7.30;99.90;;;;;;5060070;28;20039;-63
2023/01/03 02:24:37;;;;;;;7.53;1.52;;;7.30;99.90;;;;;;5061013;28;20043;-62
2023/01/03 02:27:32;;;;;;;3.05;1.50;;;7.20;99.90;;;;;;5063048;28;20056;-64
2023/01/03 02:30:09;;;;;;;4.00;1.20;;;7.20;99.90;;;;;;5042219;28;20068;-62
2023/01/03 02:32:48;;;;;;;4.93;1.25;;;7.10;99.90;;;;;;5063777;28;20029;-62
2023/01/03 02:35:13;;;;;;;2.90;1.40;;;7.10;99.90;;;;;;5058326;28;20025;-63
2023/01/03 02:37:59;;;;;;;2.83;1.50;;;7.00;99.90;;;;;;5062924;28;20051;-64
2023/01/03 02:40:54;;;;;;;3.30;1.27;;;6.90;99.90;;;;;;5066306;28;20021;-62
2023/01/03 02:43:31;;;;;;;2.95;1.70;;;6.80;99.90;;;;;;5041285;28;20124;-62
2023/01/03 02:46:24;;;;;;;2.92;1.50;;;6.80;99.90;;;;;;5054024;28;20102;-62
2023/01/03 02:48:58;;;;;;;4.22;1.73;;;6.80;99.90;;;;;;5064509;28;20082;-63
2023/01/03 02:51:29;;;;;;;2.15;1.25;;;6.70;99.90;;;;;;5059061;28;20133;-64
2023/01/03 02:53:57;;;;;;;2.08;1.30;;;6.70;99.90;;;;;;5063760;28;20041;-63
2023/01/03 02:56:37;;;;;;;2.53;1.40;;;6.80;99.90;;;;;;5069484;28;20024;-62
2023/01/03 02:59:10;;;;;;;2.67;1.23;;;6.80;99.90;;;;;;5060000;28;20788;-63
2023/01/03 03:01:43;;;;;;;3.55;1.58;;;6.80;99.90;;;;;;5057339;28;20047;-63
2023/01/03 03:04:10;;;;;;;2.65;1.33;;;6.90;99.90;;;;;;5063913;28;20032;-64
2023/01/03 03:06:50;;;;;;;3.70;1.23;;;6.90;99.90;;;;;;5063716;28;20056;-63
2023/01/03 03:09:15;;;;;;;3.75;1.45;;;6.90;99.90;;;;;;5064353;28;20504;-63
2023/01/03 03:14:33;;;;;;;4.03;1.40;;;7.00;99.90;;;;;;5069662;28;20039;-63
2023/01/03 03:17:04;;;;;;;3.33;1.20;;;7.00;99.90;;;;;;5060501;28;20370;-63
2023/01/03 03:25:16;;;;;;;2.97;1.30;;;7.00;99.90;;;;;;5057101;28;20035;-62
2023/01/03 03:30:34;;;;;;;2.67;1.55;;;6.90;99.90;;;;;;5061422;28;20116;-64
2023/01/03 03:33:04;;;;;;;5.13;1.83;;;6.90;99.90;;;;;;5052298;28;20032;-64
2023/01/03 03:35:36;;;;;;;3.65;1.90;;;6.90;99.90;;;;;;5062898;28;20033;-65
2023/01/03 03:38:05;;;;;;;6.90;1.75;;;6.90;99.90;;;;;;5053489;28;20033;-64
2023/01/03 03:46:30;;;;;;;3.42;1.73;;;6.80;99.90;;;;;;5062566;28;20585;-63
2023/01/03 03:52:01;;;;;;;3.63;1.60;;;6.80;99.90;;;;;;5055801;28;20048;-64
2023/01/03 03:54:30;;;;;;;4.20;1.83;;;6.80;99.90;;;;;;5056369;28;20040;-65
2023/01/03 03:57:12;;;;;;;2.70;1.55;;;6.80;99.90;;;;;;5056711;28;20334;-62
2023/01/03 03:59:40;;;;;;;2.97;1.83;;;6.70;99.90;;;;;;5058431;28;20104;-65
2023/01/03 04:02:08;;;;;;;3.70;1.92;;;6.70;99.90;;;;;;5050655;28;20139;-64
2023/01/03 04:04:41;;;;;;;5.15;1.85;;;6.70;99.90;;;;;;5056985;28;20036;-64
2023/01/03 04:07:06;;;;;;;4.53;1.98;;;6.70;99.90;;;;;;5060330;28;20029;-62
2023/01/03 04:09:32;;;;;;;4.40;1.90;;;6.70;99.90;;;;;;5062092;28;20040;-63
2023/01/03 04:11:58;;;;;;;3.67;1.92;;;6.70;99.90;;;;;;5057620;28;20040;-64
2023/01/03 04:14:23;;;;;;;8.40;2.30;;;6.70;99.90;;;;;;5051476;28;20037;-62
2023/01/03 04:16:49;;;;;;;5.45;2.25;;;6.70;99.90;;;;;;5069613;28;20473;-63
2023/01/03 04:19:15;;;;;;;4.45;2.30;;;6.70;99.90;;;;;;5068514;28;20028;-62
2023/01/03 04:21:40;;;;;;;4.70;2.47;;;6.60;99.90;;;;;;5061700;28;20032;-63
2023/01/03 04:24:06;;;;;;;4.97;2.55;;;6.60;99.90;;;;;;5059043;28;20020;-63
2023/01/03 04:26:32;;;;;;;5.75;2.58;;;6.50;99.90;;;;;;5062947;28;20139;-63
2023/01/03 04:28:58;;;;;;;7.25;2.67;;;6.50;99.90;;;;;;5058660;28;20120;-63
2023/01/03 04:31:23;;;;;;;6.93;2.85;;;6.60;99.90;;;;;;5058303;28;20191;-64
2023/01/03 04:33:49;;;;;;;9.23;3.05;;;6.60;99.90;;;;;;5050037;28;20086;-64
2023/01/03 04:36:17;;;;;;;7.40;3.03;;;6.60;99.90;;;;;;5057322;28;20032;-64
2023/01/03 04:38:43;;;;;;;6.63;2.85;;;6.70;99.90;;;;;;5065680;28;20028;-63
2023/01/03 04:41:09;;;;;;;7.88;2.80;;;6.70;99.90;;;;;;5051131;28;20036;-63
2023/01/03 04:46:19;;;;;;;7.55;2.97;;;6.70;99.90;;;;;;5052371;28;20036;-61
2023/01/03 04:48:44;;;;;;;9.05;2.80;;;6.70;99.90;;;;;;5066115;28;20123;-64
2023/01/03 04:51:11;;;;;;;7.60;3.30;;;6.70;99.90;;;;;;5059020;28;20114;-62
2023/01/03 04:53:36;;;;;;;6.85;3.03;;;6.70;99.90;;;;;;5061789;28;20036;-64
2023/01/03 04:56:02;;;;;;;6.93;3.50;;;6.70;99.90;;;;;;5058273;28;20029;-63
2023/01/03 04:58:28;;;;;;;8.02;3.25;;;6.70;99.90;;;;;;5060124;28;20039;-63
2023/01/03 05:01:04;;;;;;;5.35;2.97;;;6.70;99.90;;;;;;5057784;28;20390;-64
2023/01/03 05:03:30;;;;;;;4.97;3.10;;;6.60;99.90;;;;;;5056855;28;20032;-63
2023/01/03 05:06:07;;;;;;;5.97;2.80;;;6.60;99.90;;;;;;5063261;28;20020;-63
2023/01/03 05:08:33;;;;;;;11.10;2.90;;;6.50;99.90;;;;;;5056238;28;20044;-64
2023/01/03 05:10:58;;;;;;;5.22;2.80;;;6.50;99.90;;;;;;5062108;28;20040;-62
2023/01/03 05:13:24;;;;;;;4.82;2.38;;;6.30;99.90;;;;;;5066722;28;20039;-63
2023/01/03 05:15:49;;;;;;;4.25;2.33;;;6.30;99.90;;;;;;5054490;28;20039;-65
2023/01/03 05:18:15;;;;;;;4.85;2.58;;;6.20;99.90;;;;;;5048957;28;20175;-63
2023/01/03 05:26:13;;;;;;;4.00;2.40;;;5.90;99.90;;;;;;5062872;28;20158;-63
2023/01/03 05:28:40;;;;;;;5.53;2.65;;;5.90;99.90;;;;;;5064694;28;20064;-62
2023/01/03 05:31:06;;;;;;;5.47;2.75;;;5.80;99.90;;;;;;5054016;28;20037;-64
2023/01/03 05:33:32;;;;;;;5.15;3.00;;;5.80;99.90;;;;;;5053422;28;20036;-62
2023/01/03 05:35:57;;;;;;;5.05;2.70;;;5.70;99.90;;;;;;5067305;28;20564;-64
2023/01/03 05:38:23;;;;;;;5.90;3.38;;;5.70;99.90;;;;;;5071758;28;20092;-60
2023/01/03 05:40:50;;;;;;;6.65;3.08;;;5.70;99.90;;;;;;5069450;28;20048;-62
2023/01/03 05:43:15;;;;;;;5.97;2.78;;;5.70;99.90;;;;;;5065970;28;20036;-61
2023/01/03 05:45:41;;;;;;;5.55;2.92;;;5.80;99.90;;;;;;5069195;28;20073;-63
2023/01/03 05:48:08;;;;;;;7.53;3.08;;;5.80;99.90;;;;;;5067337;28;20115;-63
2023/01/03 05:50:34;;;;;;;7.63;3.08;;;5.80;99.90;;;;;;5068212;28;20031;-63
2023/01/03 05:53:00;;;;;;;8.95;3.83;;;5.70;99.90;;;;;;5066435;28;20036;-64
2023/01/03 05:55:25;;;;;;;9.57;3.88;;;5.80;99.90;;;;;;5068233;28;20021;-63
2023/01/03 05:57:52;;;;;;;19.88;7.45;;;5.80;99.90;;;;;;5067619;28;20029;-66
2023/01/03 06:00:18;;;;;;;20.52;7.53;;;5.70;99.90;;;;;;5070641;28;20520;-63
2023/01/03 06:02:43;;;;;;;15.32;5.70;;;5.80;99.90;;;;;;5068111;28;20033;-63
2023/01/03 06:05:09;;;;;;;12.88;5.38;;;5.70;99.90;;;;;;5067306;28;20118;-63
2023/01/03 06:07:36;;;;;;;10.05;4.13;;;5.60;99.90;;;;;;5068064;28;20028;-63
2023/01/03 06:10:05;;;;;;;6.97;3.83;;;5.50;99.90;;;;;;5065764;28;20501;-64
2023/01/03 06:12:31;;;;;;;6.60;3.63;;;5.40;99.90;;;;;;5067897;28;20048;-64
2023/01/03 06:14:57;;;;;;;7.75;3.75;;;5.50;99.90;;;;;;5068743;28;20047;-63
2023/01/03 06:20:07;;;;;;;8.23;4.20;;;5.50;99.90;;;;;;5065188;28;20400;-63
2023/01/03 06:22:33;;;;;;;9.43;5.38;;;5.40;99.90;;;;;;5069414;28;20032;-63
2023/01/03 06:24:58;;;;;;;8.40;4.13;;;5.30;99.90;;;;;;5074539;28;20077;-62
2023/01/03 06:27:24;;;;;;;8.57;4.03;;;5.30;99.90;;;;;;5071428;28;20056;-63
2023/01/03 06:29:50;;;;;;;9.45;3.88;;;5.20;99.90;;;;;;5071116;28;20072;-65
2023/01/03 06:32:15;;;;;;;8.05;4.28;;;5.10;99.90;;;;;;5071861;28;20119;-63
2023/01/03 06:34:41;;;;;;;7.25;3.70;;;5.10;99.90;;;;;;5071452;28;20023;-64
2023/01/03 06:37:07;;;;;;;9.95;4.20;;;5.10;99.90;;;;;;5074621;28;20024;-64
2023/01/03 06:39:32;;;;;;;9.05;4.75;;;4.90;99.90;;;;;;5065680;28;20028;-64
2023/01/03 06:42:38;;;;;;;7.78;4.18;;;4.90;99.90;;;;;;5067272;28;20037;-62
2023/01/03 06:53:10;;;;;;;8.05;4.18;;;4.90;99.90;;;;;;5066547;28;20036;-65
2023/01/03 06:53:12;;;;;;;9.50;4.38;;;5.00;99.90;;;;;;5068970;28;20086;-63
2023/01/03 06:55:39;;;;;;;9.18;4.38;;;5.10;99.90;;;;;;5073646;28;20068;-62
2023/01/03 06:58:05;;;;;;;8.63;4.13;;;5.20;99.90;;;;;;5065154;28;20040;-62
2023/01/03 07:00:31;;;;;;;7.50;3.75;;;5.10;99.90;;;;;;5066236;28;20824;-63
2023/01/03 07:02:56;;;;;;;7.78;3.90;;;5.10;99.90;;;;;;5066974;28;20032;-62
2023/01/03 07:05:22;;;;;;;7.03;3.53;;;5.10;99.90;;;;;;5068506;28;20129;-63
2023/01/03 07:07:48;;;;;;;7.93;3.50;;;5.00;99.90;;;;;;5062748;28;20475;-62
2023/01/03 07:10:13;;;;;;;14.05;3.90;;;5.00;99.90;;;;;;5072803;28;20320;-62
2023/01/03 07:15:23;;;;;;;8.00;4.15;;;4.90;99.90;;;;;;5071017;28;20404;-64
2023/01/03 07:17:49;;;;;;;9.80;4.05;;;5.00;99.90;;;;;;5070952;28;20036;-63
2023/01/03 07:20:14;;;;;;;9.35;4.47;;;5.10;99.90;;;;;;5069306;28;20116;-62
2023/01/03 07:22:40;;;;;;;9.18;4.45;;;5.10;99.90;;;;;;5073880;28;20027;-63
2023/01/03 07:25:06;;;;;;;10.95;4.47;;;5.10;99.90;;;;;;5072366;28;20028;-63
2023/01/03 07:27:31;;;;;;;14.27;6.03;;;5.10;99.90;;;;;;5069247;28;20432;-63
2023/01/03 07:29:57;;;;;;;19.80;8.77;;;5.10;99.90;;;;;;5068456;28;20056;-64
2023/01/03 07:32:23;;;;;;;9.25;4.80;;;5.20;99.90;;;;;;5070279;28;20033;-63
2023/01/03 07:34:49;;;;;;;10.77;3.80;;;5.10;99.90;;;;;;5071350;28;20401;-62
2023/01/03 07:37:14;;;;;;;6.90;3.40;;;5.00;99.90;;;;;;5068563;28;20104;-63
2023/01/03 07:39:40;;;;;;;10.10;4.47;;;5.00;99.90;;;;;;5060909;28;20027;-62
2023/01/03 07:44:51;;;;;;;9.57;3.40;;;4.90;99.90;;;;;;5070911;28;20107;-63
2023/01/03 07:47:16;;;;;;;11.88;3.90;;;4.90;99.90;;;;;;5060033;28;20029;-64
2023/01/03 07:49:42;;;;;;;10.35;3.97;;;4.80;99.90;;;;;;5049647;28;20036;-63
2023/01/03 07:52:07;;;;;;;7.93;4.15;;;4.70;99.90;;;;;;5049817;28;20705;-62
2023/01/03 07:54:33;;;;;;;10.93;4.80;;;4.80;99.90;;;;;;5059656;28;20474;-63
2023/01/03 07:56:59;;;;;;;10.07;4.70;;;4.80;99.90;;;;;;5058286;28;20091;-63
2023/01/03 07:59:24;;;;;;;9.48;5.05;;;4.90;99.90;;;;;;5060753;28;20111;-63
2023/01/03 08:01:50;;;;;;;13.40;5.53;;;5.00;99.90;;;;;;5070087;28;20556;-62
2023/01/03 08:04:16;;;;;;;11.95;5.05;;;5.00;99.90;;;;;;5060985;28;20062;-63
2023/01/03 08:06:41;;;;;;;11.13;5.30;;;5.00;99.90;;;;;;5058560;28;20474;-63
2023/01/03 08:14:35;;;;;;;11.57;4.70;;;5.10;99.90;;;;;;5061560;28;20048;-62
2023/01/03 08:17:01;;;;;;;7.78;4.10;;;5.20;99.90;;;;;;5063819;28;20033;-62
2023/01/03 08:19:26;;;;;;;10.82;4.38;;;5.20;99.90;;;;;;5050657;28;20060;-63
2023/01/03 08:21:52;;;;;;;9.20;4.40;;;5.20;99.90;;;;;;5061782;28;20032;-63
2023/01/03 08:24:17;;;;;;;8.55;4.10;;;5.20;99.90;;;;;;5061260;28;20599;-62
2023/01/03 08:26:43;;;;;;;10.20;5.20;;;5.20;99.90;;;;;;5058327;28;20056;-62
2023/01/03 08:29:09;;;;;;;17.88;6.43;;;5.30;99.90;;;;;;5063553;28;20041;-64
2023/01/03 08:31:39;;;;;;;26.77;10.00;;;5.30;99.90;;;;;;5058814;28;20035;-63
2023/01/03 08:34:09;;;;;;;15.82;6.63;;;5.40;99.90;;;;;;5057049;28;20051;-63
2023/01/03 08:36:40;;;;;;;5.75;3.38;;;5.50;99.90;;;;;;5059644;28;20036;-63
2023/01/03 08:39:10;;;;;;;5.95;3.45;;;5.60;99.90;;;;;;5057956;28;20089;-63
2023/01/03 08:41:44;;;;;;;9.45;3.40;;;5.70;99.90;;;;;;5060955;28;20044;-63
2023/01/03 08:44:10;;;;;;;7.45;3.80;;;5.60;99.90;;;;;;5059838;28;20044;-63
2023/01/03 08:46:39;;;;;;;9.18;3.92;;;5.60;99.90;;;;;;5059537;28;20036;-63
2023/01/03 08:49:05;;;;;;;9.15;3.85;;;5.60;99.90;;;;;;5059166;28;20028;-64
2023/01/03 08:51:31;;;;;;;9.25;4.25;;;5.70;99.90;;;;;;5067033;28;20060;-63
2023/01/03 08:53:56;;;;;;;13.05;5.43;;;5.70;99.90;;;;;;5068965;28;20032;-62
2023/01/03 08:56:22;;;;;;;13.07;6.57;;;5.80;99.90;;;;;;5066784;28;20043;-63
2023/01/03 08:58:48;;;;;;;13.60;6.10;;;5.80;99.90;;;;;;5059080;28;20037;-63
2023/01/03 09:01:13;;;;;;;12.32;5.90;;;5.80;99.90;;;;;;5058650;28;20043;-63
2023/01/03 09:03:39;;;;;;;14.98;6.13;;;5.80;99.90;;;;;;5066891;28;20078;-62
2023/01/03 09:06:05;;;;;;;12.43;5.60;;;5.80;99.90;;;;;;5062208;28;20040;-63
2023/01/03 09:08:32;;;;;;;14.15;5.82;;;5.60;99.90;;;;;;5061827;28;20039;-63
2023/01/03 09:11:03;;;;;;;14.88;5.85;;;5.60;99.90;;;;;;5059041;28;20441;-63
2023/01/03 09:13:28;;;;;;;17.73;5.72;;;5.60;99.90;;;;;;5065875;28;20048;-63
2023/01/03 09:16:06;;;;;;;14.90;5.40;;;5.70;99.90;;;;;;5065962;28;20487;-63
2023/01/03 09:18:33;;;;;;;14.20;5.30;;;5.80;99.90;;;;;;5068524;28;20032;-62
2023/01/03 09:21:00;;;;;;;17.92;7.60;;;5.90;99.90;;;;;;5066823;28;20040;-63
2023/01/03 09:23:26;;;;;;;17.15;7.82;;;6.00;99.90;;;;;;5065990;28;20678;-63
2023/01/03 09:25:51;;;;;;;18.52;8.32;;;6.20;99.90;;;;;;5067898;28;20029;-63
2023/01/03 09:28:17;;;;;;;14.13;5.65;;;6.30;99.90;;;;;;5066119;28;20103;-63
2023/01/03 09:30:43;;;;;;;11.98;5.88;;;6.30;99.90;;;;;;5066806;28;20047;-63
2023/01/03 09:33:10;;;;;;;12.05;5.88;;;6.30;99.90;;;;;;5067837;28;20717;-63
2023/01/03 09:35:36;;;;;;;15.75;5.75;;;6.40;99.90;;;;;;5061137;28;20036;-63
2023/01/03 09:38:02;;;;;;;13.50;5.88;;;6.40;99.90;;;;;;5074648;28;20473;-63
2023/01/03 09:40:30;;;;;;;13.57;6.65;;;6.50;99.90;;;;;;5070719;28;20043;-63
2023/01/03 09:43:13;;;;;;;15.77;6.53;;;6.60;99.90;;;;;;5066904;28;20071;-63
2023/01/03 09:45:42;;;;;;;16.52;7.45;;;6.70;99.90;;;;;;5066506;28;20060;-63
2023/01/03 09:48:14;;;;;;;20.13;8.60;;;6.80;99.90;;;;;;5066023;28;20042;-63
2023/01/03 09:50:42;;;;;;;22.67;10.15;;;6.90;99.90;;;;;;5065325;28;20036;-63
2023/01/03 10:05:20;;;;;;;17.65;8.15;;;7.40;99.90;;;;;;5064340;28;20058;-63
2023/01/03 10:08:20;;;;;;;19.42;7.03;;;7.40;99.90;;;;;;5066284;28;20059;-63
2023/01/03 10:10:58;;;;;;;19.77;6.70;;;7.40;99.90;;;;;;5065535;28;20024;-63
2023/01/03 10:13:33;;;;;;;12.98;6.28;;;7.50;99.90;;;;;;5076787;28;20036;-63
2023/01/03 10:16:10;;;;;;;16.67;7.10;;;7.60;99.90;;;;;;5063815;28;20032;-63
2023/01/03 10:18:47;;;;;;;15.10;6.55;;;7.70;99.90;;;;;;5059603;28;20024;-63
2023/01/03 10:21:37;;;;;;;12.73;6.32;;;7.80;99.90;;;;;;5059884;28;20036;-63
2023/01/03 10:24:18;;;;;;;13.23;6.65;;;8.00;99.90;;;;;;5064466;28;20024;-64
2023/01/03 10:26:44;;;;;;;11.30;5.03;;;8.10;99.90;;;;;;5061747;28;20048;-63
2023/01/03 10:29:14;;;;;;;12.25;5.68;;;8.10;99.90;;;;;;5064502;28;20033;-65
2023/01/03 10:32:16;;;;;;;10.85;5.13;;;8.20;99.90;;;;;;5065631;28;20751;-62
2023/01/03 10:34:41;;;;;;;10.52;5.50;;;8.20;99.90;;;;;;5061876;28;20037;-63
2023/01/03 10:37:17;;;;;;;12.23;5.20;;;8.30;99.90;;;;;;5072137;28;20036;-64
2023/01/03 10:39:43;;;;;;;12.10;5.07;;;8.30;99.90;;;;;;5060736;28;20032;-62
2023/01/03 10:42:17;;;;;;;8.52;4.80;;;8.30;99.90;;;;;;5059876;28;20045;-64
2023/01/03 10:44:58;;;;;;;10.30;5.18;;;8.30;99.90;;;;;;5060934;28;20393;-64
2023/01/03 10:47:25;;;;;;;10.80;4.65;;;8.20;99.90;;;;;;5048599;28;20071;-63
2023/01/03 10:50:02;;;;;;;8.25;4.25;;;8.20;99.90;;;;;;5060589;28;20032;-63
2023/01/03 10:52:36;;;;;;;11.88;4.30;;;8.40;99.90;;;;;;5047170;28;20025;-64
2023/01/03 10:55:09;;;;;;;11.05;4.20;;;8.40;99.90;;;;;;5047521;28;20091;-63
2023/01/03 10:57:51;;;;;;;7.82;3.75;;;8.40;99.90;;;;;;5047643;28;20045;-63
2023/01/03 11:00:34;;;;;;;7.15;3.63;;;8.40;99.90;;;;;;5047698;28;20067;-64
2023/01/03 11:03:15;;;;;;;6.30;3.42;;;8.50;99.90;;;;;;5048149;28;20033;-63
2023/01/03 11:05:43;;;;;;;8.00;3.53;;;8.70;99.90;;;;;;5053315;28;20036;-63
2023/01/03 11:08:36;;;;;;;7.63;4.22;;;8.60;99.90;;;;;;5054129;28;20508;-64
2023/01/03 11:11:02;;;;;;;6.38;3.80;;;8.60;99.90;;;;;;5063569;28;20163;-64
2023/01/03 11:13:38;;;;;;;6.68;3.85;;;8.90;99.90;;;;;;5070520;28;20740;-62
2023/01/03 11:16:14;;;;;;;8.02;3.72;;;8.90;99.90;;;;;;5065044;28;20067;-63
2023/01/03 11:18:41;;;;;;;9.68;4.00;;;8.90;99.90;;;;;;5066096;28;20033;-63
2023/01/03 11:21:14;;;;;;;7.18;3.50;;;8.70;99.90;;;;;;5061913;28;20036;-63
2023/01/03 11:23:55;;;;;;;8.65;3.58;;;8.70;99.90;;;;;;5061281;28;20114;-63
2023/01/03 11:26:46;;;;;;;5.70;2.90;;;8.90;99.90;;;;;;5062504;28;20055;-63
2023/01/03 11:29:34;;;;;;;5.43;2.75;;;9.10;99.90;;;;;;5068745;28;20032;-63
2023/01/03 11:32:06;;;;;;;6.68;2.72;;;9.10;99.90;;;;;;5065377;28;20032;-63
2023/01/03 11:34:41;;;;;;;7.72;3.60;;;9.10;99.90;;;;;;5058610;28;20124;-63
2023/01/03 11:37:35;;;;;;;6.07;3.00;;;9.10;99.90;;;;;;5066740;28;20473;-63
2023/01/03 11:40:25;;;;;;;6.20;2.72;;;9.10;99.90;;;;;;5067619;28;20037;-63
2023/01/03 11:43:13;;;;;;;6.70;2.50;;;9.00;99.90;;;;;;5066064;28;20036;-63
2023/01/03 11:45:57;;;;;;;4.57;2.35;;;8.80;99.90;;;;;;5055879;28;20032;-63
2023/01/03 11:48:47;;;;;;;6.97;2.70;;;8.80;99.90;;;;;;5066544;28;20535;-63
2023/01/03 11:51:25;;;;;;;6.97;2.92;;;8.80;99.90;;;;;;5058984;28;20032;-64
2023/01/03 11:54:25;;;;;;;4.97;2.80;;;8.80;99.90;;;;;;5064764;28;20040;-63
2023/01/03 11:56:52;;;;;;;5.43;2.40;;;8.60;99.90;;;;;;5064717;28;20047;-63
2023/01/03 11:59:29;;;;;;;5.40;2.35;;;8.60;99.90;;;;;;5063655;28;20058;-63
2023/01/03 12:02:29;;;;;;;4.57;2.60;;;8.50;99.90;;;;;;5060531;28;20489;-63
2023/01/03 12:05:16;;;;;;;6.28;2.60;;;8.40;99.90;;;;;;5063809;28;20036;-63
2023/01/03 12:07:53;;;;;;;4.53;2.65;;;8.40;99.90;;;;;;5060357;28;20123;-64
2023/01/03 12:10:23;;;;;;;6.15;2.80;;;8.20;99.90;;;;;;5065750;28;20083;-63
2023/01/03 12:13:04;;;;;;;5.85;2.33;;;8.10;99.90;;;;;;5070100;28;20036;-63
2023/01/03 12:15:57;;;;;;;4.57;2.17;;;8.10;99.90;;;;;;5067174;28;20107;-63
2023/01/03 12:18:30;;;;;;;5.80;2.63;;;8.20;99.90;;;;;;5069296;28;20040;-62
2023/01/03 12:21:03;;;;;;;8.77;2.33;;;8.30;99.90;;;;;;5060788;28;20459;-63
2023/01/03 12:23:43;;;;;;;3.83;2.35;;;8.20;99.90;;;;;;5068851;28;20040;-62
2023/01/03 12:26:12;;;;;;;4.57;2.20;;;8.20;99.90;;;;;;5062511;28;20492;-62
2023/01/03 12:28:40;;;;;;;4.53;2.15;;;8.20;99.90;;;;;;5060725;28;20025;-63
2023/01/03 12:31:17;;;;;;;9.30;2.58;;;8.20;99.90;;;;;;5062915;28;20039;-63
2023/01/03 12:33:58;;;;;;;4.53;2.33;;;8.30;99.90;;;;;;5067990;28;20029;-63
2023/01/03 12:36:30;;;;;;;7.78;2.20;;;8.20;99.90;;;;;;5054946;28;20025;-62
2023/01/03 12:39:18;;;;;;;5.68;2.40;;;8.10;99.90;;;;;;5067609;28;20473;-63
2023/01/03 12:41:55;;;;;;;5.43;2.40;;;8.00;99.90;;;;;;5064684;28;20040;-63
2023/01/03 12:44:33;;;;;;;6.95;3.58;;;7.90;99.90;;;;;;5065572;28;20047;-62
2023/01/03 12:46:59;;;;;;;4.00;1.92;;;8.00;99.90;;;;;;5066538;28;20300;-63
2023/01/03 12:49:34;;;;;;;5.25;2.30;;;8.50;99.90;;;;;;5065134;28;20075;-62
2023/01/03 12:51:59;;;;;;;5.80;2.63;;;9.00;99.90;;;;;;5062283;28;20033;-63
2023/01/03 12:54:46;;;;;;;6.88;2.42;;;9.50;99.90;;;;;;5060111;28;20033;-63
2023/01/03 12:57:27;;;;;;;9.02;3.30;;;9.90;99.90;;;;;;5056701;28;20408;-63
2023/01/03 13:00:31;;;;;;;5.10;2.42;;;10.10;99.90;;;;;;5063762;28;20037;-63
2023/01/03 13:03:03;;;;;;;3.80;1.60;;;10.30;99.90;;;;;;5056513;28;20505;-64
2023/01/03 13:05:49;;;;;;;6.28;2.15;;;10.30;99.90;;;;;;5060326;28;20025;-62
2023/01/03 13:08:14;;;;;;;2.95;1.30;;;10.50;99.90;;;;;;5053022;28;20103;-64
2023/01/03 13:10:47;;;;;;;4.43;1.50;;;10.60;99.90;;;;;;5061379;28;20096;-63
2023/01/03 13:13:16;;;;;;;2.40;1.30;;;10.50;99.90;;;;;;5062503;28;20029;-63
2023/01/03 13:15:45;;;;;;;4.28;1.50;;;10.60;99.90;;;;;;5061836;28;20082;-62
2023/01/03 13:18:22;;;;;;;2.80;1.38;;;10.70;99.90;;;;;;5060682;28;20036;-62
2023/01/03 13:20:50;;;;;;;2.45;1.20;;;11.20;99.90;;;;;;5062035;28;20070;-62
2023/01/03 13:23:27;;;;;;;3.00;1.42;;;11.20;99.90;;;;;;5064199;28;20077;-64
2023/01/03 13:26:21;;;;;;;2.72;0.82;;;11.30;99.90;;;;;;5065246;28;20052;-63
2023/01/03 13:28:47;;;;;;;5.00;1.05;;;11.20;99.90;;;;;;5065454;28;20140;-63
2023/01/03 13:31:13;;;;;;;2.28;0.60;;;11.30;99.90;;;;;;5060212;28;20103;-63
2023/01/03 13:33:47;;;;;;;2.65;0.77;;;11.20;99.90;;;;;;5066247;28;20459;-63
2023/01/03 13:36:16;;;;;;;3.88;0.90;;;11.10;99.90;;;;;;5061065;28;20067;-63
2023/01/03 13:38:42;;;;;;;1.13;0.50;;;11.20;99.90;;;;;;5063483;28;20028;-63
2023/01/03 13:41:30;;;;;;;3.45;0.60;;;10.90;99.90;;;;;;5057255;28;20820;-63
2023/01/03 13:44:15;;;;;;;2.20;0.75;;;10.80;99.90;;;;;;5056885;28;20035;-63
2023/01/03 13:46:41;;;;;;;2.92;0.68;;;11.00;99.90;;;;;;5060256;28;20059;-63
2023/01/03 13:49:15;;;;;;;3.80;0.70;;;11.40;99.90;;;;;;5067831;28;20029;-62
2023/01/03 13:51:48;;;;;;;3.90;0.80;;;11.80;99.90;;;;;;5066546;28;20112;-63
2023/01/03 13:54:16;;;;;;;1.35;0.98;;;12.20;99.90;;;;;;5058352;28;20039;-62
2023/01/03 13:56:42;;;;;;;1.88;0.70;;;12.20;99.90;;;;;;5063078;28;20024;-63
2023/01/03 13:59:13;;;;;;;2.25;0.70;;;11.90;99.90;;;;;;5063427;28;20120;-63
2023/01/03 14:02:10;;;;;;;3.60;0.70;;;12.20;99.90;;;;;;5059373;28;20858;-62
2023/01/03 14:04:58;;;;;;;1.70;0.60;;;12.40;99.90;;;;;;5057291;28;20028;-62
2023/01/03 14:07:35;;;;;;;3.15;0.65;;;12.70;99.90;;;;;;5065202;28;20040;-63
2023/01/03 14:10:19;;;;;;;2.10;0.70;;;12.90;99.90;;;;;;5060059;28;20089;-63
2023/01/03 14:13:22;;;;;;;3.28;0.70;;;13.10;99.90;;;;;;5058187;28;20036;-63
2023/01/03 14:15:48;;;;;;;2.50;0.80;;;12.90;99.90;;;;;;5053836;28;20128;-64
2023/01/03 14:18:19;;;;;;;2.22;0.70;;;12.90;99.90;;;;;;5062430;28;20086;-62